createdAt,value
2022-10-18T00:00:08.997Z,14.50
2022-10-18T00:02:36.047Z,13.07
2022-10-18T00:05:03.667Z,9.48
2022-10-18T00:07:30.984Z,11.45
2022-10-18T00:09:58.415Z,15.00
2022-10-18T00:12:25.540Z,13.65
2022-10-18T00:14:52.690Z,13.38
2022-10-18T00:17:20.082Z,15.48
2022-10-18T00:19:47.036Z,12.38
2022-10-18T00:22:14.129Z,12.65
2022-10-18T00:24:41.289Z,13.27
2022-10-18T00:27:08.426Z,12.40
2022-10-18T00:29:35.595Z,15.60
2022-10-18T00:32:02.756Z,11.65
2022-10-18T00:34:29.936Z,14.63
2022-10-18T00:36:57.008Z,11.23
2022-10-18T00:39:23.890Z,12.45
2022-10-18T00:41:51.666Z,12.70
2022-10-18T00:44:18.757Z,10.05
2022-10-18T00:46:47.893Z,12.75
2022-10-18T00:49:19.305Z,12.48
2022-10-18T00:52:00.995Z,10.15
2022-10-18T00:54:31.443Z,10.20
2022-10-18T00:56:58.959Z,10.77
2022-10-18T00:59:27.566Z,12.70
2022-10-18T01:01:54.729Z,10.70
2022-10-18T01:04:22.781Z,11.95
2022-10-18T01:06:52.904Z,9.98
2022-10-18T01:09:35.872Z,8.65
2022-10-18T01:12:17.754Z,12.23
2022-10-18T01:15:02.049Z,8.77
2022-10-18T01:17:50.210Z,13.48
2022-10-18T01:20:48.339Z,12.20
2022-10-18T01:23:59.322Z,13.85
2022-10-18T01:27:03.962Z,10.65
2022-10-18T01:29:58.478Z,9.57
2022-10-18T01:32:31.184Z,11.70
2022-10-18T01:35:03.256Z,7.82
2022-10-18T01:37:34.499Z,11.80
2022-10-18T01:40:06.603Z,12.77
2022-10-18T01:42:34.273Z,9.00
2022-10-18T01:45:03.002Z,8.45
2022-10-18T01:47:31.668Z,9.13
2022-10-18T01:50:02.404Z,13.70
2022-10-18T01:52:29.496Z,7.18
2022-10-18T01:54:57.682Z,12.80
2022-10-18T01:57:33.865Z,13.20
2022-10-18T02:00:06.817Z,9.32
2022-10-18T02:03:06.342Z,14.40
2022-10-18T02:05:56.788Z,7.88
2022-10-18T02:09:06.510Z,11.27
2022-10-18T02:11:36.934Z,11.27
2022-10-18T02:14:11.598Z,10.00
2022-10-18T02:16:47.606Z,8.70
2022-10-18T02:19:37.996Z,7.60
2022-10-18T02:22:06.734Z,11.30
2022-10-18T02:24:44.221Z,11.80
2022-10-18T02:27:12.490Z,9.30
2022-10-18T02:29:40.978Z,9.60
2022-10-18T02:32:08.120Z,10.70
2022-10-18T02:35:04.392Z,7.97
2022-10-18T02:37:36.483Z,9.50
2022-10-18T02:40:05.771Z,7.50
2022-10-18T02:42:45.675Z,12.35
2022-10-18T02:45:14.013Z,9.10
2022-10-18T02:47:41.249Z,8.63
2022-10-18T02:50:08.822Z,7.32
2022-10-18T02:52:35.676Z,11.38
2022-10-18T02:55:02.917Z,9.05
2022-10-18T02:57:30.926Z,7.85
2022-10-18T02:59:58.338Z,7.18
2022-10-18T03:02:25.918Z,10.43
2022-10-18T03:04:52.998Z,10.65
2022-10-18T03:07:20.100Z,8.18
2022-10-18T03:09:47.260Z,10.30
2022-10-18T03:12:14.394Z,10.25
2022-10-18T03:14:42.443Z,10.18
2022-10-18T03:17:09.615Z,11.45
2022-10-18T03:19:38.602Z,8.55
2022-10-18T03:22:05.917Z,8.57
2022-10-18T03:24:33.083Z,7.93
2022-10-18T03:27:00.124Z,10.38
2022-10-18T03:29:26.955Z,11.13
2022-10-18T03:31:55.112Z,9.38
2022-10-18T03:34:22.166Z,9.30
2022-10-18T03:36:49.028Z,8.73
2022-10-18T03:39:15.922Z,8.15
2022-10-18T03:41:43.086Z,7.43
2022-10-18T03:44:10.235Z,10.95
2022-10-18T03:46:37.345Z,12.05
2022-10-18T03:49:04.589Z,9.65
2022-10-18T03:51:31.703Z,7.50
2022-10-18T03:53:58.805Z,7.90
2022-10-18T03:56:25.949Z,8.48
2022-10-18T03:58:53.094Z,8.75
2022-10-18T04:01:19.961Z,7.40
2022-10-18T04:03:47.101Z,11.60
2022-10-18T04:06:14.418Z,7.90
2022-10-18T04:08:41.386Z,10.82
2022-10-18T04:11:09.877Z,9.60
2022-10-18T04:13:37.283Z,8.70
2022-10-18T04:16:04.470Z,7.40
2022-10-18T04:18:31.578Z,7.53
2022-10-18T04:20:58.953Z,7.53
2022-10-18T04:23:25.836Z,10.02
2022-10-18T04:25:52.772Z,9.10
2022-10-18T04:28:19.851Z,9.60
2022-10-18T04:30:53.738Z,7.13
2022-10-18T04:33:20.596Z,11.95
2022-10-18T04:35:50.815Z,17.83
2022-10-18T04:38:17.712Z,11.55
2022-10-18T04:40:44.790Z,11.83
2022-10-18T04:43:13.222Z,11.10
2022-10-18T04:45:40.328Z,12.75
2022-10-18T04:48:07.337Z,9.80
2022-10-18T04:50:34.175Z,10.17
2022-10-18T04:53:01.005Z,10.40
2022-10-18T04:55:28.018Z,10.90
2022-10-18T04:57:54.912Z,8.02
2022-10-18T05:00:22.195Z,10.13
2022-10-18T05:02:49.256Z,10.50
2022-10-18T05:05:16.457Z,15.35
2022-10-18T05:07:43.471Z,12.47
2022-10-18T05:10:10.482Z,10.70
2022-10-18T05:12:37.461Z,12.27
2022-10-18T05:15:04.919Z,11.17
2022-10-18T05:17:32.031Z,10.88
2022-10-18T05:19:58.960Z,10.57
2022-10-18T05:22:26.054Z,10.03
2022-10-18T05:24:52.974Z,9.77
2022-10-18T05:27:20.328Z,8.30
2022-10-18T05:29:47.270Z,13.47
2022-10-18T05:32:14.467Z,10.33
2022-10-18T05:34:42.016Z,9.87
2022-10-18T05:37:08.981Z,13.07
2022-10-18T05:39:37.723Z,10.03
2022-10-18T05:42:06.302Z,11.48
2022-10-18T05:44:33.424Z,10.23
2022-10-18T05:47:00.566Z,13.70
2022-10-18T05:49:27.734Z,9.10
2022-10-18T05:51:54.559Z,8.77
2022-10-18T05:54:21.783Z,10.47
2022-10-18T05:56:48.828Z,9.55
2022-10-18T05:59:15.717Z,9.93
2022-10-18T06:01:43.445Z,9.10
2022-10-18T06:04:10.483Z,8.52
2022-10-18T06:06:38.446Z,10.90
2022-10-18T06:09:07.159Z,12.67
2022-10-18T06:11:35.228Z,31.30
2022-10-18T06:14:02.387Z,12.00
2022-10-18T06:16:32.425Z,9.68
2022-10-18T06:19:00.290Z,17.27
2022-10-18T06:21:27.761Z,9.70
2022-10-18T06:23:58.538Z,10.10
2022-10-18T06:26:27.109Z,8.13
2022-10-18T06:28:54.189Z,11.07
2022-10-18T06:31:21.438Z,7.55
2022-10-18T06:33:49.304Z,9.70
2022-10-18T06:36:18.777Z,8.80
2022-10-18T06:38:46.029Z,13.10
2022-10-18T06:41:13.309Z,16.80
2022-10-18T06:43:40.440Z,25.63
2022-10-18T06:46:08.433Z,20.00
2022-10-18T06:48:36.877Z,16.02
2022-10-18T06:51:05.952Z,11.18
2022-10-18T06:53:40.762Z,13.88
2022-10-18T06:56:12.878Z,12.95
2022-10-18T06:58:40.853Z,10.40
2022-10-18T07:01:13.648Z,12.43
2022-10-18T07:03:40.494Z,11.73
2022-10-18T07:06:09.774Z,10.23
2022-10-18T07:08:36.986Z,9.32
2022-10-18T07:11:04.670Z,9.68
2022-10-18T07:13:33.476Z,12.48
2022-10-18T07:16:07.064Z,9.52
2022-10-18T07:18:39.630Z,17.15
2022-10-18T07:21:09.730Z,9.70
2022-10-18T07:23:39.180Z,15.20
2022-10-18T07:26:27.376Z,11.05
2022-10-18T07:29:01.535Z,14.50
2022-10-18T07:31:29.431Z,9.85
2022-10-18T07:33:56.493Z,14.27
2022-10-18T07:36:24.597Z,10.35
2022-10-18T07:38:55.048Z,11.68
2022-10-18T07:41:22.279Z,11.88
2022-10-18T07:43:51.609Z,14.10
2022-10-18T07:46:20.342Z,10.70
2022-10-18T07:48:47.736Z,12.27
2022-10-18T07:51:15.178Z,11.63
2022-10-18T07:53:42.107Z,14.65
2022-10-18T07:56:15.991Z,42.03
2022-10-18T07:58:43.748Z,20.33
2022-10-18T08:01:11.095Z,11.75
2022-10-18T08:03:38.946Z,10.85
2022-10-18T08:06:09.254Z,12.95
2022-10-18T08:08:38.595Z,9.60
2022-10-18T08:11:17.298Z,12.25
2022-10-18T08:13:44.510Z,13.25
2022-10-18T08:16:15.216Z,11.63
2022-10-18T08:18:42.428Z,8.32
2022-10-18T08:21:11.577Z,13.88
2022-10-18T08:23:40.205Z,11.18
2022-10-18T08:26:10.063Z,17.80
2022-10-18T08:28:37.276Z,15.45
2022-10-18T08:31:06.430Z,9.95
2022-10-18T08:33:34.132Z,10.40
2022-10-18T08:36:02.624Z,10.65
2022-10-18T08:38:31.390Z,14.38
2022-10-18T08:41:35.244Z,14.02
2022-10-18T08:44:21.085Z,11.63
2022-10-18T08:47:19.367Z,12.15
2022-10-18T08:49:51.589Z,13.80
2022-10-18T08:52:27.448Z,13.07
2022-10-18T08:55:03.810Z,14.60
2022-10-18T08:57:32.092Z,15.48
2022-10-18T08:59:59.315Z,16.40
2022-10-18T09:02:36.296Z,13.65
2022-10-18T09:05:22.242Z,52.45
2022-10-18T09:07:55.830Z,16.67
2022-10-18T09:10:31.707Z,17.73
2022-10-18T09:13:19.093Z,16.77
2022-10-18T09:16:05.148Z,13.25
2022-10-18T09:18:50.899Z,18.58
2022-10-18T09:21:54.003Z,15.15
2022-10-18T09:24:46.082Z,12.20
2022-10-18T09:27:19.142Z,18.05
2022-10-18T09:29:52.050Z,13.07
2022-10-18T09:32:21.711Z,15.50
2022-10-18T09:35:11.975Z,15.07
2022-10-18T09:37:40.035Z,14.90
2022-10-18T09:40:24.683Z,16.83
2022-10-18T09:42:54.892Z,15.32
2022-10-18T09:45:37.944Z,18.27
2022-10-18T09:48:34.317Z,23.25
2022-10-18T09:51:27.064Z,17.33
2022-10-18T09:54:09.237Z,17.60
2022-10-18T09:57:05.386Z,18.63
2022-10-18T09:59:42.719Z,18.08
2022-10-18T10:02:22.289Z,22.65
2022-10-18T10:04:50.769Z,17.92
2022-10-18T10:07:28.701Z,34.70
2022-10-18T10:09:59.554Z,21.20
2022-10-18T10:12:30.615Z,22.98
2022-10-18T10:15:20.732Z,31.98
2022-10-18T10:18:00.056Z,21.40
2022-10-18T10:20:42.317Z,15.95
2022-10-18T10:23:32.080Z,30.67
2022-10-18T10:26:20.427Z,25.40
2022-10-18T10:28:49.154Z,25.65
2022-10-18T10:31:19.322Z,24.58
2022-10-18T10:33:47.651Z,26.58
2022-10-18T10:36:19.882Z,23.23
2022-10-18T10:39:01.867Z,49.88
2022-10-18T10:41:30.107Z,27.95
2022-10-18T10:43:57.544Z,18.30
2022-10-18T10:46:35.504Z,14.45
2022-10-18T10:49:35.097Z,17.17
2022-10-18T10:52:09.228Z,18.02
2022-10-18T10:54:51.155Z,19.40
2022-10-18T10:57:21.387Z,18.98
2022-10-18T10:59:53.724Z,17.02
2022-10-18T11:02:21.868Z,17.73
2022-10-18T11:04:54.775Z,15.88
2022-10-18T11:07:52.540Z,22.08
2022-10-18T11:10:24.688Z,16.15
2022-10-18T11:13:13.072Z,19.48
2022-10-18T11:15:45.626Z,18.08
2022-10-18T11:18:28.106Z,19.25
2022-10-18T11:21:18.877Z,23.55
2022-10-18T11:23:46.401Z,17.83
2022-10-18T11:26:13.195Z,22.88
2022-10-18T11:29:25.848Z,18.73
2022-10-18T11:32:13.717Z,18.80
2022-10-18T11:35:04.635Z,19.92
2022-10-18T11:37:52.490Z,25.58
2022-10-18T11:40:27.943Z,18.50
2022-10-18T11:43:15.018Z,16.23
2022-10-18T11:45:56.390Z,22.90
2022-10-18T11:48:23.158Z,18.27
2022-10-18T11:51:23.757Z,22.25
2022-10-18T11:54:12.285Z,19.58
2022-10-18T11:57:05.121Z,17.00
2022-10-18T11:59:46.266Z,20.80
2022-10-18T14:28:31.540Z,21.63
2022-10-18T14:31:18.353Z,21.77
2022-10-18T14:33:58.296Z,25.58
2022-10-18T14:36:29.310Z,21.38
2022-10-18T14:39:01.080Z,23.95
2022-10-18T14:41:29.062Z,21.42
2022-10-18T14:44:14.630Z,25.77
2022-10-18T14:46:45.969Z,24.27
2022-10-18T14:49:14.635Z,21.30
2022-10-18T14:51:44.006Z,29.85
2022-10-18T14:54:30.754Z,32.63
2022-10-18T14:57:00.618Z,33.20
2022-10-18T14:59:30.344Z,32.55
2022-10-18T15:02:12.432Z,37.47
2022-10-18T15:04:39.208Z,25.73
2022-10-18T15:07:12.989Z,25.98
2022-10-18T15:09:40.183Z,26.17
2022-10-18T15:12:08.042Z,34.80
2022-10-18T15:14:35.649Z,29.92
2022-10-18T15:17:08.303Z,24.77
2022-10-18T15:19:39.362Z,27.60
2022-10-18T15:25:15.335Z,32.08
2022-10-18T15:27:45.605Z,32.70
2022-10-18T15:30:27.556Z,33.72
2022-10-18T15:33:00.535Z,30.13
2022-10-18T15:35:38.511Z,31.73
2022-10-18T15:38:24.280Z,30.48
2022-10-18T15:40:51.477Z,27.42
2022-10-18T15:43:24.369Z,26.60
2022-10-18T15:46:06.397Z,22.00
2022-10-18T15:48:39.511Z,20.00
2022-10-18T15:51:33.986Z,20.52
2022-10-18T15:54:00.743Z,22.73
2022-10-18T15:56:27.850Z,16.30
2022-10-18T15:58:59.267Z,15.10
2022-10-18T16:01:36.350Z,12.07
2022-10-18T16:04:26.906Z,10.43
2022-10-18T16:06:55.637Z,10.45
2022-10-18T16:09:25.249Z,11.07
2022-10-18T16:11:56.596Z,8.88
2022-10-18T16:14:24.379Z,7.53
2022-10-18T16:16:54.572Z,9.00
2022-10-18T16:19:22.729Z,11.65
2022-10-18T16:21:50.504Z,9.07
2022-10-18T16:24:17.792Z,10.50
2022-10-18T16:26:45.015Z,11.27
2022-10-18T16:29:16.623Z,10.13
2022-10-18T16:31:43.881Z,10.25
2022-10-18T16:34:11.314Z,11.85
2022-10-18T16:36:38.210Z,7.57
2022-10-18T16:39:07.747Z,10.73
2022-10-18T16:41:34.572Z,11.05
2022-10-18T16:44:01.301Z,13.02
2022-10-18T16:46:30.785Z,11.98
2022-10-18T16:48:58.309Z,13.30
2022-10-18T16:51:25.829Z,16.08
2022-10-18T16:53:53.698Z,13.88
2022-10-18T16:56:27.129Z,12.35
2022-10-18T16:58:54.361Z,12.35
2022-10-18T17:01:22.736Z,15.77
2022-10-18T17:03:52.163Z,15.88
2022-10-18T17:06:22.858Z,14.13
2022-10-18T17:08:49.998Z,15.75
2022-10-18T17:11:17.608Z,17.50
2022-10-18T17:13:44.760Z,18.55
2022-10-18T17:16:20.770Z,20.15
2022-10-18T17:18:47.867Z,17.92
2022-10-18T17:21:14.678Z,12.68
2022-10-18T17:23:41.461Z,14.25
2022-10-18T17:26:28.346Z,13.27
2022-10-18T17:29:08.305Z,9.65
2022-10-18T17:31:35.774Z,8.70
2022-10-18T17:34:03.196Z,7.40
2022-10-18T17:36:31.716Z,6.83
2022-10-18T17:38:58.818Z,6.68
2022-10-18T17:41:26.296Z,5.57
2022-10-18T17:43:53.218Z,5.65
2022-10-18T17:46:20.624Z,6.35
2022-10-18T17:48:47.454Z,6.15
2022-10-18T17:51:17.146Z,5.38
2022-10-18T17:53:44.838Z,6.28
2022-10-18T17:56:13.051Z,6.17
2022-10-18T17:58:40.282Z,7.82
2022-10-18T18:01:23.301Z,6.57
2022-10-18T18:03:50.789Z,7.33
2022-10-18T18:06:23.782Z,8.33
2022-10-18T18:08:50.882Z,6.25
2022-10-18T18:11:18.641Z,7.17
2022-10-18T18:13:45.574Z,6.88
2022-10-18T18:16:23.258Z,6.57
2022-10-18T18:18:52.799Z,7.70
2022-10-18T18:21:20.653Z,6.00
2022-10-18T18:23:49.708Z,6.28
2022-10-18T18:26:18.807Z,6.33
2022-10-18T18:28:46.347Z,8.70
2022-10-18T18:31:23.452Z,5.00
2022-10-18T18:33:53.386Z,9.07
2022-10-18T18:36:22.403Z,6.93
2022-10-18T18:38:55.526Z,6.93
2022-10-18T18:41:26.105Z,8.73
2022-10-18T18:43:56.469Z,8.50
2022-10-18T18:46:24.913Z,10.75
2022-10-18T18:48:51.854Z,11.87
2022-10-18T18:51:20.982Z,7.57
2022-10-18T18:53:48.578Z,10.98
2022-10-18T18:56:18.666Z,7.30
2022-10-18T18:58:46.930Z,7.37
2022-10-18T19:01:19.512Z,5.28
2022-10-18T19:03:48.790Z,11.13
2022-10-18T19:06:24.407Z,7.20
2022-10-18T19:08:54.109Z,5.80
2022-10-18T19:11:22.522Z,5.00
2022-10-18T19:13:50.121Z,10.07
2022-10-18T19:16:24.270Z,9.50
2022-10-18T19:19:01.008Z,6.70
2022-10-18T19:21:52.470Z,8.30
2022-10-18T19:24:20.855Z,8.27
2022-10-18T19:26:52.864Z,7.93
2022-10-18T19:29:22.386Z,6.47
2022-10-18T19:31:51.417Z,7.67
2022-10-18T19:34:22.016Z,8.00
2022-10-18T19:36:49.517Z,12.17
2022-10-18T19:39:18.286Z,10.83
2022-10-18T19:41:50.568Z,9.60
2022-10-18T19:44:19.255Z,11.10
2022-10-18T19:46:46.423Z,12.82
2022-10-18T19:49:13.659Z,9.07
2022-10-18T19:51:41.209Z,7.97
2022-10-18T19:54:08.155Z,9.33
2022-10-18T19:56:34.958Z,11.07
2022-10-18T19:59:01.833Z,8.07
2022-10-18T20:01:29.485Z,12.60
2022-10-18T20:03:56.986Z,10.20
2022-10-18T20:06:24.271Z,10.70
2022-10-18T20:08:51.854Z,11.95
2022-10-18T20:11:21.610Z,11.73
2022-10-18T20:13:49.421Z,16.33
2022-10-18T20:16:25.489Z,15.73
2022-10-18T20:19:02.839Z,16.50
2022-10-18T20:21:32.543Z,13.23
2022-10-18T20:23:59.273Z,13.20
2022-10-18T20:26:26.200Z,13.02
2022-10-18T20:28:58.800Z,15.33
2022-10-18T20:31:31.357Z,13.75
2022-10-18T20:34:00.908Z,15.27
2022-10-18T20:36:29.179Z,11.53
2022-10-18T20:38:56.294Z,16.57
2022-10-18T20:41:35.144Z,12.97
2022-10-18T20:44:04.677Z,12.87
2022-10-18T20:46:34.657Z,12.13
2022-10-18T20:49:02.281Z,12.53
2022-10-18T20:51:29.017Z,16.33
2022-10-18T20:53:56.319Z,24.70
2022-10-18T20:56:26.480Z,14.87
2022-10-18T20:58:56.658Z,17.10
2022-10-18T21:01:29.273Z,15.03
2022-10-18T21:03:58.196Z,17.38
2022-10-18T21:06:31.022Z,16.40
2022-10-18T21:09:04.597Z,14.40
2022-10-18T21:11:35.019Z,18.08
2022-10-18T21:14:02.813Z,18.83
2022-10-18T21:16:31.763Z,18.05
2022-10-18T21:19:08.662Z,15.15
2022-10-18T21:21:35.894Z,15.73
2022-10-18T21:24:06.868Z,14.52
2022-10-18T21:26:35.110Z,15.53
2022-10-18T21:29:02.034Z,17.73
2022-10-18T21:31:34.951Z,16.60
2022-10-18T21:34:04.833Z,18.83
2022-10-18T21:36:34.784Z,20.08
2022-10-18T21:39:03.402Z,15.23
2022-10-18T21:41:31.858Z,15.32
2022-10-18T21:43:58.971Z,16.42
2022-10-18T21:46:27.245Z,16.38
2022-10-18T21:48:55.949Z,16.38
2022-10-18T21:51:26.122Z,18.73
2022-10-18T21:53:55.498Z,14.75
2022-10-18T21:56:24.815Z,16.90
2022-10-18T21:58:51.691Z,18.13
2022-10-18T22:01:21.427Z,14.40
2022-10-18T22:03:50.682Z,18.85
2022-10-18T22:06:18.003Z,16.70
2022-10-18T22:08:50.449Z,18.25
2022-10-18T22:11:18.932Z,19.23
2022-10-18T22:13:46.406Z,22.45
2022-10-18T22:16:15.934Z,17.97
2022-10-18T22:18:44.312Z,18.15
2022-10-18T22:21:12.998Z,17.58
2022-10-18T22:23:51.196Z,22.20
2022-10-18T22:26:33.663Z,19.35
2022-10-18T22:29:07.049Z,21.67
2022-10-18T22:31:36.618Z,16.63
2022-10-18T22:34:07.216Z,17.45
2022-10-18T22:36:34.986Z,18.97
2022-10-18T22:39:02.101Z,19.15
2022-10-18T22:41:28.879Z,19.13
2022-10-18T22:43:57.404Z,19.27
2022-10-18T22:46:26.772Z,15.87
2022-10-18T22:48:53.786Z,22.03
2022-10-18T22:51:21.887Z,17.23
2022-10-18T22:53:49.415Z,18.52
2022-10-18T22:56:18.452Z,19.45
2022-10-18T22:58:45.654Z,20.98
2022-10-18T23:01:15.359Z,19.50
2022-10-18T23:03:42.575Z,19.40
2022-10-18T23:06:20.584Z,20.02
2022-10-18T23:08:48.121Z,16.40
2022-10-18T23:11:14.960Z,20.30
2022-10-18T23:13:42.159Z,17.30
2022-10-18T23:16:09.086Z,22.83
2022-10-18T23:18:35.955Z,18.03
2022-10-18T23:21:08.987Z,19.27
2022-10-18T23:23:39.555Z,20.23
2022-10-18T23:26:14.737Z,20.43
2022-10-18T23:28:44.719Z,19.30
2022-10-18T23:31:14.698Z,17.33
2022-10-18T23:33:42.136Z,17.83
2022-10-18T23:36:09.502Z,18.93
2022-10-18T23:38:37.783Z,24.73
2022-10-18T23:41:08.894Z,20.00
2022-10-18T23:43:36.295Z,16.80
2022-10-18T23:46:03.273Z,19.00
2022-10-18T23:48:30.190Z,16.47
2022-10-18T23:50:57.205Z,15.50
2022-10-18T23:53:24.230Z,19.57
2022-10-18T23:56:01.416Z,24.90
2022-10-18T23:58:30.374Z,18.57
